Time;durP1;ratioP1;P1;durP2;ratioP2;P2;SDS_P1;SDS_P2;PMS_P1;PMS_P2;Temp;Humidity;BMP_temperature;BMP_pressure;BME280_temperature;BME280_humidity;BME280_pressure;Samples;Min_cycle;Max_cycle;Signal;HPM_P1;HPM_P2
2023/03/04 00:00:25;;;;;;;;;111.67;89.33;;;;;1.21;100.00;99624.06;6284569;20;3700265;-58
2023/03/04 00:02:55;;;;;;;;;112.00;96.67;;;;;1.15;100.00;99630.38;6286698;20;3682617;-56
2023/03/04 00:05:25;;;;;;;;;116.00;93.00;;;;;0.96;100.00;99621.16;6283331;20;3689827;-58
2023/03/04 00:07:55;;;;;;;;;110.67;90.00;;;;;0.86;100.00;99624.00;6283701;20;3686702;-56
2023/03/04 00:10:25;;;;;;;;;109.33;95.67;;;;;0.82;100.00;99624.13;6285383;20;3679412;-56
2023/03/04 00:12:54;;;;;;;;;107.33;91.33;;;;;0.79;100.00;99627.72;6283505;20;3684039;-56
2023/03/04 00:15:24;;;;;;;;;108.67;86.67;;;;;0.72;100.00;99630.53;6283964;20;3711708;-58
2023/03/04 00:17:54;;;;;;;;;108.33;79.67;;;;;0.91;100.00;99621.25;6282506;20;3699242;-57
2023/03/04 00:20:23;;;;;;;;;98.00;78.33;;;;;0.87;100.00;99616.97;6284064;20;3660678;-56
2023/03/04 00:22:53;;;;;;;;;116.00;88.33;;;;;0.86;100.00;99624.00;6282058;20;3715889;-57
2023/03/04 00:25:23;;;;;;;;;107.67;87.33;;;;;0.86;100.00;99617.84;6280660;20;3689854;-56
2023/03/04 00:27:53;;;;;;;;;112.33;91.00;;;;;0.90;100.00;99619.53;6284347;20;3695086;-56
2023/03/04 00:30:22;;;;;;;;;112.33;86.67;;;;;1.02;100.00;99613.94;6283774;20;3703754;-57
2023/03/04 00:32:52;;;;;;;;;103.67;84.67;;;;;0.96;100.00;99614.09;6283196;20;3686827;-57
2023/03/04 00:35:22;;;;;;;;;103.67;76.67;;;;;1.12;100.00;99613.72;6281249;20;3686763;-58
2023/03/04 00:37:51;;;;;;;;;105.00;84.33;;;;;1.03;100.00;99610.41;6284586;20;3695116;-57
2023/03/04 00:40:21;;;;;;;;;104.67;88.67;;;;;1.22;100.00;99612.59;6283107;20;3683625;-57
2023/03/04 00:42:51;;;;;;;;;103.00;82.67;;;;;1.35;100.00;99611.41;6283687;20;3691952;-57
2023/03/04 00:45:21;;;;;;;;;100.33;78.00;;;;;1.36;100.00;99607.81;6283753;20;3696162;-57
2023/03/04 00:47:50;;;;;;;;;111.33;86.33;;;;;1.33;100.00;99613.19;6284258;20;3705514;-58
2023/03/04 00:50:20;;;;;;;;;103.00;79.67;;;;;1.30;100.00;99610.63;6283515;20;3697144;-57
2023/03/04 00:52:50;;;;;;;;;101.00;84.00;;;;;1.25;100.00;99604.59;6284979;20;3682609;-57
2023/03/04 00:55:19;;;;;;;;;100.00;79.67;;;;;1.37;100.00;99609.59;6282208;20;3693027;-57
2023/03/04 00:57:49;;;;;;;;;104.67;81.67;;;;;1.29;100.00;99608.88;6281875;20;3697168;-57
2023/03/04 01:00:19;;;;;;;;;105.33;86.00;;;;;1.26;100.00;99603.66;6283196;20;3695196;-56
2023/03/04 01:02:49;;;;;;;;;102.67;81.33;;;;;1.26;100.00;99601.91;6281413;20;3696118;-57
2023/03/04 01:05:19;;;;;;;;;102.33;77.33;;;;;1.34;100.00;99595.56;6283624;20;3695064;-58
2023/03/04 01:07:49;;;;;;;;;102.00;85.00;;;;;1.33;100.00;99602.63;6282903;20;3692979;-57
2023/03/04 01:10:19;;;;;;;;;104.67;85.33;;;;;1.23;100.00;99591.41;6283539;20;3692952;-55
2023/03/04 01:12:48;;;;;;;;;102.67;83.00;;;;;1.22;100.00;99583.53;6283268;20;3684617;-58
2023/03/04 01:15:18;;;;;;;;;99.67;77.67;;;;;1.32;100.00;99585.03;6285128;20;3681569;-57
2023/03/04 01:17:48;;;;;;;;;103.33;84.33;;;;;1.24;100.00;99566.72;6280238;20;3701310;-56
2023/03/04 01:20:18;;;;;;;;;91.67;75.33;;;;;1.25;100.00;99583.44;6284149;20;3653360;-57
2023/03/04 01:22:49;;;;;;;;;106.50;85.00;;;;;1.21;100.00;99577.38;6313489;20;3707602;-56
2023/03/04 01:25:18;;;;;;;;;103.33;78.00;;;;;1.26;100.00;99571.94;6283275;20;3688825;-55
2023/03/04 01:27:48;;;;;;;;;99.67;76.33;;;;;1.35;100.00;99563.78;6282945;20;3682167;-57
2023/03/04 01:30:18;;;;;;;;;93.33;72.33;;;;;1.29;100.00;99563.91;6282609;20;3658569;-57
2023/03/04 01:32:47;;;;;;;;;94.00;75.00;;;;;1.26;100.00;99564.00;6315805;20;3648161;-55
2023/03/04 01:35:17;;;;;;;;;98.33;77.33;;;;;1.28;100.00;99567.47;6281332;20;3665957;-56
2023/03/04 01:37:47;;;;;;;;;88.00;64.33;;;;;1.22;100.00;99557.06;6281395;20;2892089;-57
2023/03/04 01:40:17;;;;;;;;;97.33;73.67;;;;;1.15;100.00;99550.19;6314147;20;3661701;-58
2023/03/04 01:42:47;;;;;;;;;102.67;77.67;;;;;1.18;100.00;99552.75;6311567;20;3696084;-55
2023/03/04 01:45:19;;;;;;;;;97.33;72.67;;;;;1.24;100.00;99549.97;6282898;20;3684619;-57
2023/03/04 01:47:51;;;;;;;;;93.67;70.00;;;;;1.05;100.00;99555.72;6283354;20;3648170;-55
2023/03/04 01:50:32;;;;;;;;;91.33;69.33;;;;;1.12;100.00;99548.50;6311068;20;3641997;-56
2023/03/04 01:53:03;;;;;;;;;103.33;71.67;;;;;1.13;100.00;99550.22;6310949;20;3678446;-56
2023/03/04 01:55:32;;;;;;;;;82.00;63.67;;;;;0.97;100.00;99556.81;6281550;20;2894205;-56
2023/03/04 01:58:08;;;;;;;;;97.67;70.67;;;;;0.49;100.00;99555.28;6314291;20;3664970;-56
2023/03/04 02:00:39;;;;;;;;;102.33;76.67;;;;;0.20;100.00;99564.72;6311556;20;3690871;-57
2023/03/04 02:03:15;;;;;;;;;98.67;78.67;;;;;0.09;100.00;99556.16;6279374;20;3672125;-57
2023/03/04 02:05:50;;;;;;;;;101.00;72.67;;;;;-0.47;100.00;99560.81;6283386;20;3682535;-57
2023/03/04 02:08:23;;;;;;;;;104.67;76.00;;;;;-0.77;100.00;99556.97;6311764;20;3684656;-57
2023/03/04 02:10:53;;;;;;;;;96.67;72.67;;;;;-0.67;100.00;99563.81;6278830;20;3653416;-55
2023/03/04 02:13:23;;;;;;;;;99.67;76.00;;;;;-0.74;100.00;99556.91;6313794;20;3659668;-57
2023/03/04 02:15:53;;;;;;;;;108.00;79.67;;;;;-0.91;100.00;99565.97;6310082;20;3692991;-56
2023/03/04 02:18:24;;;;;;;;;107.00;78.00;;;;;-0.93;100.00;99562.50;6279804;20;3685710;-54
2023/03/04 02:21:27;;;;;;;;;97.00;65.33;;;;;-0.96;100.00;99551.16;6282059;20;2892081;-53
2023/03/04 02:24:14;;;;;;;;;96.00;74.33;;;;;-0.68;100.00;99541.88;6308488;20;3662819;-56
2023/03/04 02:26:45;;;;;;;;;114.33;85.67;;;;;-0.67;100.00;99533.03;6312398;20;3709629;-57
2023/03/04 02:29:17;;;;;;;;;107.67;82.67;;;;;-0.37;100.00;99525.47;6278247;20;3685776;-56
2023/03/04 02:31:50;;;;;;;;;124.00;89.67;;;;;-0.36;100.00;99518.41;6282155;20;3695046;-57
2023/03/04 02:34:30;;;;;;;;;103.33;78.67;;;;;-0.40;100.00;99512.31;6281386;20;3679555;-57
2023/03/04 02:37:02;;;;;;;;;111.33;87.67;;;;;-0.43;100.00;99522.94;6276982;20;3707629;-56
2023/03/04 02:39:42;;;;;;;;;110.67;87.33;;;;;-0.58;100.00;99517.94;6279404;20;3699504;-56
2023/03/04 02:42:12;;;;;;;;;104.33;81.33;;;;;-0.59;100.00;99518.84;6281958;20;3685684;-57
2023/03/04 02:44:48;;;;;;;;;110.67;86.67;;;;;-0.42;100.00;99521.16;6282746;20;3698220;-54
2023/03/04 02:47:18;;;;;;;;;101.33;78.00;;;;;-0.79;100.00;99522.75;6282933;20;3683568;-57
2023/03/04 02:49:48;;;;;;;;;100.33;72.67;;;;;-0.98;100.00;99516.03;6280920;20;3677340;-56
2023/03/04 02:52:24;;;;;;;;;103.00;75.33;;;;;-0.82;100.00;99517.50;6278052;20;3688794;-55
2023/03/04 02:54:53;;;;;;;;;102.33;71.33;;;;;-0.52;100.00;99521.34;6280758;20;3682629;-56
2023/03/04 02:57:23;;;;;;;;;101.67;75.67;;;;;-0.76;100.00;99520.06;6318814;20;3697351;-55
2023/03/04 02:59:53;;;;;;;;;101.67;73.33;;;;;-0.73;100.00;99521.75;6287893;20;3672145;-54
2023/03/04 03:02:22;;;;;;;;;103.00;79.67;;;;;-1.14;100.00;99515.44;6283964;20;3684658;-57
2023/03/04 03:04:52;;;;;;;;;107.00;79.67;;;;;-0.98;100.00;99511.63;6284651;20;3683708;-55
2023/03/04 03:07:22;;;;;;;;;106.67;74.67;;;;;-0.69;100.00;99510.25;6286584;20;3684067;-57
2023/03/04 03:09:51;;;;;;;;;108.00;82.00;;;;;-0.86;100.00;99509.72;6285342;20;3689995;-56
2023/03/04 03:12:21;;;;;;;;;105.67;80.00;;;;;-0.90;100.00;99508.88;6285820;20;3693000;-55
2023/03/04 03:14:50;;;;;;;;;106.00;81.33;;;;;-0.55;100.00;99505.59;6285362;20;3694046;-57
2023/03/04 03:17:20;;;;;;;;;106.00;85.67;;;;;-0.70;100.00;99512.00;6286089;20;3683671;-57
2023/03/04 03:19:50;;;;;;;;;107.33;86.00;;;;;-0.82;100.00;99512.22;6281794;20;3691944;-57
2023/03/04 03:22:19;;;;;;;;;148.67;106.67;;;;;-0.95;100.00;99502.81;6285806;20;3731564;-55
2023/03/04 03:24:49;;;;;;;;;120.00;97.33;;;;;-1.04;100.00;99493.31;6286726;20;3699297;-56
2023/03/04 03:27:20;;;;;;;;;147.75;107.75;;;;;-1.13;100.00;99491.72;6282860;20;3727594;-56
2023/03/04 03:29:50;;;;;;;;;190.00;152.25;;;;;-1.07;100.00;99490.75;6286457;20;4481873;-55
2023/03/04 03:32:20;;;;;;;;;141.33;123.00;;;;;-1.09;100.00;99487.25;6285526;20;3698217;-54
2023/03/04 03:34:50;;;;;;;;;149.50;114.75;;;;;-1.14;100.00;99478.56;6287161;20;3725765;-56
2023/03/04 03:37:20;;;;;;;;;137.00;104.00;;;;;-1.25;100.00;99480.53;6284786;20;3723420;-56
2023/03/04 03:39:50;;;;;;;;;104.67;90.67;;;;;-1.19;100.00;99481.25;6286288;20;3674228;-56
2023/03/04 03:42:19;;;;;;;;;108.00;84.33;;;;;-1.26;100.00;99478.75;6317634;20;3674222;-55
2023/03/04 03:44:49;;;;;;;;;104.67;76.33;;;;;-1.11;100.00;99479.41;6280804;20;3682563;-56
2023/03/04 03:47:19;;;;;;;;;124.00;101.67;;;;;-1.35;100.00;99478.03;6288451;20;3710671;-55
2023/03/04 03:49:49;;;;;;;;;122.00;92.00;;;;;-1.67;100.00;99472.41;6285557;20;3705452;-56
2023/03/04 03:52:18;;;;;;;;;114.33;85.33;;;;;-1.64;100.00;99473.22;6286942;20;3702331;-56
2023/03/04 03:54:48;;;;;;;;;121.00;92.33;;;;;-1.76;100.00;99478.72;6284322;20;3704516;-57
2023/03/04 03:57:18;;;;;;;;;109.00;90.00;;;;;-1.50;100.00;99480.03;6285479;20;3688927;-55
2023/03/04 03:59:47;;;;;;;;;107.00;80.33;;;;;-1.53;100.00;99478.31;6282697;20;3682605;-56
2023/03/04 04:02:17;;;;;;;;;106.33;82.33;;;;;-1.42;100.00;99467.63;6284069;20;3674305;-55
2023/03/04 04:04:48;;;;;;;;;109.33;88.00;;;;;-1.17;100.00;99478.63;6280996;20;3697201;-55
2023/03/04 04:07:18;;;;;;;;;119.67;92.00;;;;;-1.46;100.00;99476.47;6284476;20;3704400;-55
2023/03/04 04:09:48;;;;;;;;;112.00;88.00;;;;;-1.48;100.00;99479.13;6284579;20;3690880;-55
2023/03/04 04:12:19;;;;;;;;;111.00;81.33;;;;;-1.66;100.00;99485.56;6283407;20;3689820;-56
2023/03/04 04:14:48;;;;;;;;;97.67;74.33;;;;;-1.85;100.00;99471.78;6285164;20;2901551;-53
2023/03/04 04:17:18;;;;;;;;;101.33;76.33;;;;;-1.78;100.00;99472.59;6317127;20;3670122;-53
2023/03/04 04:19:48;;;;;;;;;103.00;77.67;;;;;-1.59;100.00;99476.66;6316943;20;3678390;-56
2023/03/04 04:22:20;;;;;;;;;107.67;78.67;;;;;-1.62;100.00;99471.44;6283846;20;3682552;-57
2023/03/04 04:24:49;;;;;;;;;117.67;80.67;;;;;-1.88;100.00;99473.63;6280183;20;3684624;-55
2023/03/04 04:27:19;;;;;;;;;114.67;89.00;;;;;-2.05;100.00;99472.09;6282525;20;3702434;-55
2023/03/04 04:29:49;;;;;;;;;93.33;70.67;;;;;-1.81;100.00;99470.00;6281532;20;2891005;-56
2023/03/04 04:32:18;;;;;;;;;105.00;80.33;;;;;-1.69;100.00;99475.06;6314542;20;3683603;-55
2023/03/04 04:34:48;;;;;;;;;105.00;78.67;;;;;-1.62;100.00;99471.44;6278900;20;3664910;-55
2023/03/04 04:37:18;;;;;;;;;105.33;80.67;;;;;-1.72;100.00;99471.63;6317058;20;3679917;-55
2023/03/04 04:39:48;;;;;;;;;99.67;74.33;;;;;-1.48;100.00;99475.63;6317289;20;3661690;-53
2023/03/04 04:42:17;;;;;;;;;103.67;76.67;;;;;-1.62;100.00;99465.31;6317710;20;3683565;-55
2023/03/04 04:44:47;;;;;;;;;95.67;68.00;;;;;-1.80;100.00;99469.97;6280726;20;3648179;-57
2023/03/04 04:47:17;;;;;;;;;104.33;77.00;;;;;-1.72;100.00;99469.84;6315616;20;3681534;-54
2023/03/04 04:49:47;;;;;;;;;98.67;71.33;;;;;-1.88;100.00;99476.25;6277652;20;3664831;-55
2023/03/04 04:52:16;;;;;;;;;107.67;82.67;;;;;-1.89;100.00;99474.53;6316807;20;3680459;-56
2023/03/04 04:54:46;;;;;;;;;109.33;74.67;;;;;-2.09;100.00;99465.13;6282359;20;3674208;-55
2023/03/04 04:57:14;;;;;;;;;96.67;75.00;;;;;-2.22;100.00;99468.81;6311175;20;3645115;-56
2023/03/04 04:59:44;;;;;;;;;97.67;73.33;;;;;-1.94;100.00;99468.44;6315746;20;2884804;-54
2023/03/04 05:02:14;;;;;;;;;106.00;80.00;;;;;-2.08;100.00;99472.16;6315765;20;3682624;-56
2023/03/04 05:04:43;;;;;;;;;94.00;73.67;;;;;-1.90;100.00;99470.13;6281642;20;2872189;-56
2023/03/04 05:07:12;;;;;;;;;93.00;71.00;;;;;-1.67;100.00;99475.91;6314171;20;2893142;-56
2023/03/04 05:09:42;;;;;;;;;94.00;69.67;;;;;-1.52;100.00;99481.84;6283648;20;3644015;-57
2023/03/04 05:12:11;;;;;;;;;102.67;71.00;;;;;-1.63;100.00;99484.66;6316842;20;3678409;-56
2023/03/04 05:14:41;;;;;;;;;109.33;83.33;;;;;-1.39;100.00;99488.66;6315457;20;3687749;-55
2023/03/04 05:17:09;;;;;;;;;66.50;41.00;;;;;-1.64;100.00;99481.13;6282956;20;2868420;-56
2023/03/04 05:19:38;;;;;;;;;113.33;81.00;;;;;-1.56;100.00;99484.50;6283897;20;3693061;-56
2023/03/04 05:22:08;;;;;;;;;96.67;72.00;;;;;-1.58;100.00;99478.41;6281088;20;2890004;-56
2023/03/04 05:24:38;;;;;;;;;92.00;69.33;;;;;-1.46;100.00;99487.88;6314279;20;2878524;-53
2023/03/04 05:27:07;;;;;;;;;100.00;76.00;;;;;-1.37;100.00;99489.47;6314977;20;3667937;-55
2023/03/04 05:29:37;;;;;;;;;93.67;68.00;;;;;-1.23;100.00;99487.50;6314713;20;3653378;-55
2023/03/04 05:32:06;;;;;;;;;101.00;72.33;;;;;-1.33;99.88;99493.81;6314156;20;3675252;-56
2023/03/04 05:34:36;;;;;;;;;95.33;71.67;;;;;-1.38;99.66;99493.03;6281183;20;3658609;-57
2023/03/04 05:37:06;;;;;;;;;101.00;73.67;;;;;-1.37;99.89;99492.09;6314553;20;3662784;-54
2023/03/04 05:39:35;;;;;;;;;98.33;72.33;;;;;-1.35;99.53;99500.84;6280342;20;3660815;-53
2023/03/04 05:42:05;;;;;;;;;91.00;71.00;;;;;-1.31;99.44;99499.94;6315483;20;2889274;-54
2023/03/04 05:44:35;;;;;;;;;89.00;69.00;;;;;-0.93;98.17;99499.25;6314556;20;2884723;-55
2023/03/04 05:47:04;;;;;;;;;93.33;70.00;;;;;-0.83;96.44;99492.06;6313775;20;3663873;-56
2023/03/04 05:49:34;;;;;;;;;86.67;65.00;;;;;-0.78;96.50;99502.53;6314489;20;3653425;-55
2023/03/04 05:52:03;;;;;;;;;99.67;79.33;;;;;-0.40;93.92;99498.25;6314749;20;3662783;-54
2023/03/04 05:54:33;;;;;;;;;99.00;74.67;;;;;-0.24;93.64;99505.84;6312472;20;3672179;-55
2023/03/04 05:57:03;;;;;;;;;100.33;71.67;;;;;-0.30;93.20;99500.69;6313508;20;3664961;-55
2023/03/04 05:59:32;;;;;;;;;89.00;68.00;;;;;0.24;91.77;99511.84;6273775;20;2889043;-57
2023/03/04 06:02:01;;;;;;;;;72.50;57.00;;;;;0.42;90.15;99512.31;6310419;20;2879453;-56
2023/03/04 06:04:30;;;;;;;;;82.33;61.00;;;;;0.15;91.25;99508.50;6281963;20;3649292;-55
2023/03/04 06:07:00;;;;;;;;;86.33;66.67;;;;;0.64;88.88;99511.81;6314313;20;3632653;-56
2023/03/04 06:09:30;;;;;;;;;87.33;63.00;;;;;1.60;86.12;99507.56;6312022;20;3656645;-58
2023/03/04 06:11:59;;;;;;;;;82.33;62.33;;;;;4.17;76.52;99514.09;6312908;20;3642972;-59
2023/03/04 06:14:29;;;;;;;;;87.33;65.67;;;;;5.85;67.26;99513.34;6315653;20;3639850;-59
2023/03/04 06:17:00;;;;;;;;;86.00;63.33;;;;;7.41;60.05;99523.63;6314515;20;3636052;-59
2023/03/04 06:19:29;;;;;;;;;87.00;66.00;;;;;7.08;57.87;99528.88;6313231;20;3638769;-59
2023/03/04 06:21:59;;;;;;;;;90.00;64.00;;;;;8.52;53.88;99532.88;6312299;20;3642004;-60
2023/03/04 06:24:29;;;;;;;;;97.33;78.33;;;;;8.52;53.35;99538.22;6312916;20;3674205;-59
2023/03/04 06:26:59;;;;;;;;;91.00;66.33;;;;;9.43;49.34;99536.56;6281617;20;3670439;-59
2023/03/04 06:29:29;;;;;;;;;78.00;57.00;;;;;8.29;51.48;99543.94;6280385;20;3656514;-59
2023/03/04 06:31:58;;;;;;;;;72.67;58.33;;;;;9.57;48.50;99543.78;6314149;20;3625242;-59
2023/03/04 06:34:28;;;;;;;;;72.00;56.00;;;;;9.25;47.67;99540.34;6313420;20;3634009;-59
2023/03/04 06:36:58;;;;;;;;;71.00;55.33;;;;;9.17;48.95;99542.59;6313962;20;3631509;-59
2023/03/04 06:39:28;;;;;;;;;68.50;53.00;;;;;9.68;45.12;99548.50;6311500;20;2841946;-59
2023/03/04 06:41:57;;;;;;;;;71.00;51.67;;;;;8.94;48.62;99544.78;6314712;20;3642967;-59
2023/03/04 06:44:27;;;;;;;;;68.33;53.33;;;;;10.69;45.83;99541.34;6313009;20;3636722;-59
2023/03/04 06:46:57;;;;;;;;;69.67;53.00;;;;;12.03;43.41;99550.31;6313800;20;3635704;-58
2023/03/04 06:49:26;;;;;;;;;52.67;38.33;;;;;10.72;43.39;99543.88;6313169;20;2871124;-58
2023/03/04 06:51:56;;;;;;;;;54.33;44.33;;;;;9.75;44.80;99549.88;6312557;20;2865125;-59
2023/03/04 06:54:25;;;;;;;;;64.00;50.33;;;;;10.06;45.50;99543.50;6313891;20;3625296;-57
2023/03/04 06:56:55;;;;;;;;;66.67;50.00;;;;;10.19;45.62;99540.03;6311843;20;3633666;-58
2023/03/04 06:59:24;;;;;;;;;57.67;46.00;;;;;10.48;43.46;99546.31;6313458;20;3618999;-57
2023/03/04 07:01:54;;;;;;;;;60.67;49.00;;;;;11.08;43.53;99551.34;6311179;20;3613906;-57
2023/03/04 07:04:24;;;;;;;;;64.33;49.00;;;;;12.17;40.87;99540.41;6313974;20;3640930;-57
2023/03/04 07:06:53;;;;;;;;;60.00;47.33;;;;;11.21;42.55;99551.38;6311207;20;3623298;-58
2023/03/04 07:09:23;;;;;;;;;55.33;45.67;;;;;11.85;40.63;99548.88;6313122;20;3620202;-57
2023/03/04 07:11:52;;;;;;;;;57.67;47.33;;;;;11.17;42.67;99545.38;6310191;20;2873246;-57
2023/03/04 07:14:22;;;;;;;;;55.33;45.67;;;;;11.82;41.22;99551.75;6311381;20;3614865;-58
2023/03/04 07:16:52;;;;;;;;;58.67;45.67;;;;;12.80;40.27;99558.31;6313620;20;3633574;-57
2023/03/04 07:19:22;;;;;;;;;60.67;47.00;;;;;7.75;50.74;99545.94;6313135;20;3634779;-57
2023/03/04 07:21:52;;;;;;;;;59.67;46.00;;;;;6.00;57.99;99543.75;6313235;20;3609631;-57
2023/03/04 07:24:21;;;;;;;;;66.67;51.00;;;;;4.95;63.09;99542.03;6309910;20;3632640;-57
2023/03/04 07:26:51;;;;;;;;;65.00;52.67;;;;;5.19;65.26;99541.03;6311674;20;3627357;-57
2023/03/04 07:29:20;;;;;;;;;73.00;54.33;;;;;4.94;66.57;99535.84;6313273;20;3654607;-57
2023/03/04 07:31:50;;;;;;;;;70.00;53.33;;;;;4.62;66.49;99535.34;6313954;20;3637834;-57
2023/03/04 07:34:22;;;;;;;;;74.33;54.00;;;;;4.88;68.57;99533.44;6312499;20;3632642;-56
2023/03/04 07:36:51;;;;;;;;;75.00;56.00;;;;;5.28;66.54;99534.44;6311218;20;3631533;-57
2023/03/04 07:39:21;;;;;;;;;65.00;51.00;;;;;5.06;66.48;99531.81;6311334;20;2880921;-57
2023/03/04 07:41:50;;;;;;;;;67.00;54.00;;;;;5.03;69.71;99527.50;6314545;20;3621077;-54
2023/03/04 07:44:20;;;;;;;;;68.00;53.33;;;;;5.87;67.00;99530.09;6318375;20;3624205;-57
2023/03/04 07:46:50;;;;;;;;;64.67;50.33;;;;;6.06;63.45;99544.38;6314472;20;3614846;-57
2023/03/04 07:49:20;;;;;;;;;71.00;54.00;;;;;5.81;65.26;99533.91;6317172;20;3631496;-55
2023/03/04 07:51:50;;;;;;;;;66.67;50.00;;;;;5.94;64.54;99529.78;6314608;20;3632554;-58
2023/03/04 07:54:19;;;;;;;;;54.50;44.00;;;;;5.95;65.75;99525.34;6318396;20;2852374;-58
2023/03/04 07:56:48;;;;;;;;;58.67;42.33;;;;;6.16;64.50;99523.47;6283414;20;2875327;-58
2023/03/04 07:59:17;;;;;;;;;55.67;39.33;;;;;6.72;62.72;99525.28;6318473;20;3629203;-58
2023/03/04 08:01:46;;;;;;;;;59.00;45.00;;;;;6.93;62.02;99515.34;6286086;20;3614965;-58
2023/03/04 08:04:16;;;;;;;;;59.33;45.00;;;;;6.42;62.29;99518.72;6318581;20;3624239;-58
2023/03/04 08:06:47;;;;;;;;;58.67;47.00;;;;;6.21;62.30;99526.78;6316018;20;3619054;-58
2023/03/04 08:09:17;;;;;;;;;60.33;46.33;;;;;6.64;61.70;99521.25;6317910;20;3628847;-58
2023/03/04 08:11:46;;;;;;;;;58.00;46.00;;;;;6.57;61.98;99518.00;6317157;20;2863926;-58
2023/03/04 08:14:15;;;;;;;;;56.50;46.00;;;;;6.60;62.31;99513.38;6315972;20;2837817;-58
2023/03/04 08:16:44;;;;;;;;;58.50;47.50;;;;;6.85;60.89;99524.69;6286345;20;2860831;-59
2023/03/04 08:19:14;;;;;;;;;55.67;43.00;;;;;7.50;60.34;99519.63;6285437;20;3599228;-59
2023/03/04 08:21:43;;;;;;;;;59.00;45.67;;;;;6.73;60.43;99523.47;6315858;20;3612748;-58
2023/03/04 08:24:12;;;;;;;;;57.00;47.50;;;;;7.36;60.41;99520.34;6314155;20;2854530;-58
2023/03/04 08:26:47;;;;;;;;;60.67;48.00;;;;;7.12;59.88;99512.63;6281832;20;2872275;-58
2023/03/04 08:29:22;;;;;;;;;65.00;47.67;;;;;7.08;61.73;99515.53;6314380;20;3636742;-59
2023/03/04 08:31:54;;;;;;;;;62.67;47.33;;;;;7.84;59.60;99508.03;6317771;20;3639864;-58
2023/03/04 08:34:26;;;;;;;;;62.00;49.00;;;;;6.78;61.23;99505.44;6313666;20;3622137;-57
2023/03/04 08:36:56;;;;;;;;;57.33;45.33;;;;;7.05;62.24;99505.84;6313238;20;3598190;-59
2023/03/04 08:39:25;;;;;;;;;65.33;50.33;;;;;7.20;61.47;99504.22;6317385;20;2874312;-59
2023/03/04 08:41:55;;;;;;;;;64.33;47.33;;;;;7.38;60.07;99507.78;6315260;20;3630494;-58
2023/03/04 08:44:25;;;;;;;;;57.33;45.33;;;;;7.79;60.02;99499.38;6314805;20;3625423;-59
2023/03/04 08:46:55;;;;;;;;;56.33;45.67;;;;;8.40;57.58;99503.25;6314896;20;2869070;-58
2023/03/04 08:49:24;;;;;;;;;60.67;46.67;;;;;7.72;59.26;99503.34;6317203;20;3622132;-57
2023/03/04 08:51:53;;;;;;;;;52.50;40.00;;;;;8.90;57.77;99499.50;6314664;20;2860734;-58
2023/03/04 08:54:22;;;;;;;;;52.67;43.33;;;;;8.14;59.95;99500.19;6284449;20;2854484;-58
2023/03/04 08:56:52;;;;;;;;;51.33;41.00;;;;;8.70;58.76;99498.84;6314953;20;2861759;-56
2023/03/04 08:59:21;;;;;;;;;65.67;50.00;;;;;8.70;58.31;99503.34;6315787;20;3626448;-58
2023/03/04 09:01:50;;;;;;;;;55.50;42.50;;;;;8.35;57.04;99498.16;6315444;20;2851493;-58
2023/03/04 09:04:20;;;;;;;;;54.00;44.00;;;;;9.20;56.94;99491.53;6283583;20;2867025;-57
2023/03/04 09:06:49;;;;;;;;;59.67;43.67;;;;;9.00;54.66;99490.88;6311777;20;3623265;-58
2023/03/04 09:09:21;;;;;;;;;55.33;41.00;;;;;8.58;53.79;99491.50;6314363;20;2854647;-57
2023/03/04 09:11:50;;;;;;;;;46.00;37.00;;;;;9.24;54.85;99479.66;6313896;20;2859708;-58
2023/03/04 09:14:20;;;;;;;;;54.33;43.33;;;;;9.47;54.79;99482.78;6283101;20;2866971;-58
2023/03/04 09:16:48;;;;;;;;;34.67;32.33;;;;;9.49;51.45;99471.03;6317576;20;3600305;-59
2023/03/04 09:19:17;;;;;;;;;48.00;39.50;;;;;9.66;51.87;99472.66;6285148;20;2855495;-58
2023/03/04 09:21:46;;;;;;;;;38.50;32.50;;;;;9.84;48.12;99479.56;6284332;20;3491973;-58
2023/03/04 09:24:15;;;;;;;;;25.00;22.50;;;;;9.77;46.07;99472.88;6310377;20;2834669;-57
2023/03/04 09:26:44;;;;;;;;;27.00;24.00;;;;;9.72;45.59;99472.31;6284452;20;2498230;-57
2023/03/04 09:29:12;;;;;;;;;25.50;21.00;;;;;9.92;45.20;99472.88;6281907;20;2500294;-57
2023/03/04 09:31:41;;;;;;;;;29.00;25.50;;;;;9.91;45.33;99460.44;6282708;20;2852370;-58
2023/03/04 09:34:09;;;;;;;;;26.00;22.50;;;;;10.20;44.03;99461.28;6284541;20;2837774;-58
2023/03/04 09:36:38;;;;;;;;;30.00;23.50;;;;;10.79;43.28;99453.88;6282014;20;2844110;-57
2023/03/04 09:39:07;;;;;;;;;27.00;23.50;;;;;10.75;42.61;99441.63;6283110;20;2846188;-57
2023/03/04 09:41:51;;;;;;;;;25.00;23.00;;;;;10.82;42.19;99448.31;6283033;20;2850295;-58
2023/03/04 09:44:31;;;;;;;;;20.00;18.50;;;;;10.19;41.81;99444.34;6280392;20;2492055;-58
2023/03/04 09:47:14;;;;;;;;;20.00;19.00;;;;;10.17;41.20;99438.19;6282893;20;2834786;-57
2023/03/04 09:49:51;;;;;;;;;23.50;19.50;;;;;10.79;41.37;99437.75;6280656;20;2500290;-58
2023/03/04 09:53:02;;;;;;;;;21.00;18.00;;;;;11.02;40.50;99438.06;6280847;20;2496120;-57
2023/03/04 09:55:42;;;;;;;;;21.50;16.50;;;;;10.71;39.71;99423.97;6280601;20;2498215;-57
2023/03/04 09:59:01;;;;;;;;;20.50;15.50;;;;;10.90;39.07;99423.59;6283747;20;2829438;-57
2023/03/04 10:01:55;;;;;;;;;18.00;18.00;;;;;11.02;38.22;99414.72;6279027;20;2829435;-57
2023/03/04 10:04:46;;;;;;;;;32.33;29.33;;;;;10.82;39.22;99415.22;6280846;20;2865032;-58
2023/03/04 10:07:33;;;;;;;;;31.67;27.67;;;;;10.85;39.02;99409.63;6311347;20;2856551;-56
2023/03/04 10:10:26;;;;;;;;;20.00;20.00;;;;;11.02;38.58;99400.44;6311479;20;2832970;-58
2023/03/04 10:12:59;;;;;;;;;23.50;18.50;;;;;11.23;38.65;99411.56;6279901;20;2837846;-57
2023/03/04 10:15:40;;;;;;;;;33.67;24.67;;;;;11.03;38.95;99400.31;6282398;20;2860831;-57
2023/03/04 10:18:54;;;;;;;;;27.00;24.00;;;;;10.85;38.22;99399.78;6313542;20;2491989;-57
2023/03/04 10:21:37;;;;;;;;;23.50;19.00;;;;;11.19;39.31;99405.53;6308360;20;2837874;-58
2023/03/04 10:24:17;;;;;;;;;32.00;22.50;;;;;11.28;38.09;99398.66;6277968;20;2858657;-58
2023/03/04 10:26:51;;;;;;;;;16.00;12.00;;;;;11.35;38.09;99399.97;6282794;20;3533653;-58
2023/03/04 10:29:23;;;;;;;;;25.33;22.00;;;;;11.58;38.19;99404.56;6314420;20;3582740;-58
2023/03/04 10:31:54;;;;;;;;;26.00;23.00;;;;;11.90;37.62;99396.09;6280408;20;2855569;-58
2023/03/04 10:34:24;;;;;;;;;26.00;25.00;;;;;11.48;37.64;99390.09;6283885;20;2845065;-58
2023/03/04 10:37:05;;;;;;;;;38.33;25.33;;;;;11.89;38.80;99394.38;6281519;20;3614858;-58
2023/03/04 10:39:39;;;;;;;;;26.00;24.50;;;;;11.12;38.01;99388.09;6311549;20;2840063;-58
2023/03/04 10:42:14;;;;;;;;;24.50;21.50;;;;;11.24;37.90;99387.25;6281778;20;2842027;-56
2023/03/04 10:44:59;;;;;;;;;33.67;27.67;;;;;11.48;38.48;99382.00;6282664;20;2851349;-58
2023/03/04 10:47:32;;;;;;;;;46.00;33.00;;;;;11.30;37.59;99375.22;6311094;20;3612878;-58
2023/03/04 10:50:05;;;;;;;;;32.00;28.33;;;;;11.49;37.49;99372.97;6315140;20;3611701;-58
2023/03/04 10:52:45;;;;;;;;;32.00;28.00;;;;;11.86;37.13;99371.22;6283047;20;3600257;-57
2023/03/04 10:55:27;;;;;;;;;25.00;19.00;;;;;11.38;36.80;99365.66;6310384;20;2847188;-59
2023/03/04 10:58:06;;;;;;;;;25.00;23.00;;;;;11.34;37.21;99363.28;6279177;20;2849276;-58
2023/03/04 11:00:37;;;;;;;;;25.00;23.00;;;;;11.73;36.58;99364.13;6279209;20;2854477;-58
2023/03/04 11:03:31;;;;;;;;;16.50;13.50;;;;;12.07;36.77;99360.75;6314876;20;2810710;-58
2023/03/04 11:06:21;;;;;;;;;32.00;26.00;;;;;11.95;36.83;99358.94;6284110;20;2853442;-58
2023/03/04 11:08:58;;;;;;;;;33.67;30.00;;;;;12.17;37.37;99360.09;6284594;20;3606524;-58
2023/03/04 11:11:41;;;;;;;;;29.00;24.33;;;;;12.10;36.72;99359.66;6278639;20;2847380;-58
2023/03/04 11:14:50;;;;;;;;;27.67;22.67;;;;;11.77;36.08;99354.84;6312756;20;3594029;-58
2023/03/04 11:17:28;;;;;;;;;28.00;23.00;;;;;12.08;35.77;99343.66;6282289;20;2821201;-58
2023/03/04 11:20:29;;;;;;;;;26.50;23.50;;;;;12.12;36.05;99346.09;6285326;20;2854469;-58